createdAt,value
2023-01-20T00:01:16.605Z,100382.25
2023-01-20T00:06:14.901Z,100377.47
2023-01-20T00:11:14.080Z,100365.09
2023-01-20T00:16:12.413Z,100383.81
2023-01-20T00:21:11.973Z,100374.97
2023-01-20T00:26:11.229Z,100384.31
2023-01-20T00:31:17.382Z,100368.22
2023-01-20T00:36:16.656Z,100362.56
2023-01-20T00:41:15.147Z,100360.16
2023-01-20T00:46:14.955Z,100360.22
2023-01-20T00:51:13.191Z,100351.22
2023-01-20T00:56:11.063Z,100339.44
2023-01-20T01:01:09.014Z,100344.50
2023-01-20T01:06:09.650Z,100332.47
2023-01-20T01:11:07.712Z,100339.38
2023-01-20T01:16:05.714Z,100323.91
2023-01-20T01:21:08.459Z,100329.84
2023-01-20T01:26:06.493Z,100329.84
2023-01-20T01:31:05.434Z,100311.81
2023-01-20T01:36:04.206Z,100312.47
2023-01-20T01:41:03.484Z,100309.44
2023-01-20T01:46:01.837Z,100313.31
2023-01-20T01:51:00.826Z,100300.59
2023-01-20T01:56:00.006Z,100302.69
2023-01-20T02:00:59.303Z,100302.50
2023-01-20T02:05:57.250Z,100278.75
2023-01-20T02:10:55.081Z,100274.38
2023-01-20T02:15:59.772Z,100264.44
2023-01-20T02:21:12.863Z,100267.31
2023-01-20T02:26:18.573Z,100261.81
2023-01-20T02:31:30.189Z,100261.13
2023-01-20T02:36:33.706Z,100245.50
2023-01-20T02:41:36.576Z,100240.53
2023-01-20T02:46:37.947Z,100227.91
2023-01-20T02:51:42.162Z,100225.50
2023-01-20T02:56:40.841Z,100232.06
2023-01-20T03:01:41.623Z,100242.38
2023-01-20T03:06:43.854Z,100231.16
2023-01-20T03:11:43.676Z,100249.75
2023-01-20T03:16:42.514Z,100246.41
2023-01-20T03:21:42.016Z,100242.91
2023-01-20T03:26:39.851Z,100241.72
2023-01-20T03:31:39.396Z,100238.69
2023-01-20T03:36:38.285Z,100235.97
2023-01-20T03:41:42.743Z,100224.88
2023-01-20T03:46:43.763Z,100209.34
2023-01-20T03:51:47.878Z,100217.66
2023-01-20T03:56:50.081Z,100221.78
2023-01-20T04:01:48.352Z,100226.56
2023-01-20T04:06:46.804Z,100214.63
2023-01-20T04:11:44.652Z,100218.44
2023-01-20T04:16:45.271Z,100211.84
2023-01-20T04:21:45.116Z,100212.81
2023-01-20T04:26:43.218Z,100215.59
2023-01-20T04:31:41.124Z,100220.09
2023-01-20T04:36:40.353Z,100211.59
2023-01-20T04:41:38.165Z,100216.66
2023-01-20T04:46:37.066Z,100203.22
2023-01-20T04:51:35.079Z,100211.97
2023-01-20T04:56:34.245Z,100210.78
2023-01-20T05:01:32.106Z,100205.63
2023-01-20T05:06:29.932Z,100212.59
2023-01-20T05:11:27.907Z,100221.47
2023-01-20T05:16:32.005Z,100215.38
2023-01-20T05:21:30.034Z,100211.25
2023-01-20T05:26:27.993Z,100205.97
2023-01-20T05:31:28.486Z,100222.78
2023-01-20T05:36:28.363Z,100211.91
2023-01-20T05:41:26.169Z,100212.38
2023-01-20T05:46:26.371Z,100195.38
2023-01-20T05:51:26.407Z,100191.84
2023-01-20T05:56:24.419Z,100198.66
2023-01-20T06:01:22.357Z,100215.91
2023-01-20T06:06:21.479Z,100235.78
2023-01-20T06:11:23.219Z,100224.88
2023-01-20T06:16:30.186Z,100236.44
2023-01-20T06:21:28.136Z,100224.66
2023-01-20T06:26:27.309Z,100234.78
2023-01-20T06:31:26.421Z,100213.47
2023-01-20T06:36:24.669Z,100226.16
2023-01-20T06:41:26.194Z,100207.03
2023-01-20T06:46:25.595Z,100219.97
2023-01-20T06:51:23.663Z,100215.38
2023-01-20T06:56:26.237Z,100216.56
2023-01-20T07:01:30.829Z,100248.03
2023-01-20T07:06:31.756Z,100230.44
2023-01-20T07:11:46.393Z,100208.66
2023-01-20T07:16:45.889Z,100216.78
2023-01-20T07:21:44.029Z,100211.34
2023-01-20T07:26:45.091Z,100213.00
2023-01-20T07:31:45.894Z,100221.44
2023-01-20T07:36:52.231Z,100213.72
2023-01-20T07:42:01.767Z,100204.53
2023-01-20T07:46:59.851Z,100203.97
2023-01-20T07:52:02.434Z,100211.41
2023-01-20T07:57:00.575Z,100214.03
2023-01-20T08:01:58.523Z,100202.00
2023-01-20T08:06:56.802Z,100193.41
2023-01-20T08:11:56.098Z,100194.78
2023-01-20T08:16:56.294Z,100213.69
2023-01-20T08:22:02.800Z,100215.78
2023-01-20T08:27:02.492Z,100213.69
2023-01-20T08:32:11.119Z,100227.25
2023-01-20T08:37:09.835Z,100183.13
2023-01-20T08:42:09.076Z,100178.16
2023-01-20T08:47:07.884Z,100186.91
2023-01-20T08:52:06.271Z,100181.84
2023-01-20T08:57:14.707Z,100185.31
2023-01-20T09:02:13.778Z,100168.78
2023-01-20T09:07:14.612Z,100148.22
2023-01-20T09:12:16.911Z,100170.91
2023-01-20T09:17:15.232Z,100163.47
2023-01-20T09:22:13.030Z,100148.00
2023-01-20T09:27:13.307Z,100139.03
2023-01-20T09:32:24.662Z,100124.69
2023-01-20T09:37:42.426Z,100106.91
2023-01-20T09:43:05.733Z,100080.78
2023-01-20T09:48:29.996Z,100080.25
2023-01-20T09:53:35.736Z,100082.63
2023-01-20T09:58:37.310Z,100082.75
2023-01-20T10:03:39.409Z,100077.41
2023-01-20T10:08:40.492Z,100060.16
2023-01-20T10:13:47.370Z,100053.78
2023-01-20T10:18:49.368Z,100046.91
2023-01-20T10:23:49.714Z,100040.91
2023-01-20T10:28:50.689Z,100031.91
2023-01-20T10:33:50.046Z,100018.97
2023-01-20T10:38:53.107Z,100019.34
2023-01-20T10:43:51.294Z,100002.84
2023-01-20T10:49:04.712Z,99999.34
2023-01-20T10:54:09.843Z,99980.59
2023-01-20T10:59:11.101Z,99988.56
2023-01-20T11:04:17.779Z,99987.72
2023-01-20T11:09:21.036Z,99980.03
2023-01-20T11:14:18.873Z,99993.69
2023-01-20T11:19:18.061Z,99986.78
2023-01-20T11:24:29.378Z,99981.06
2023-01-20T11:29:29.247Z,99957.16
2023-01-20T11:34:30.167Z,99959.41
2023-01-20T11:39:29.746Z,99955.06
2023-01-20T11:44:27.627Z,99961.97
2023-01-20T11:49:25.496Z,99966.28
2023-01-20T11:54:25.434Z,99913.31
2023-01-20T11:59:25.490Z,99922.56
2023-01-20T12:04:47.202Z,99846.97
2023-01-20T12:09:48.195Z,99893.59
2023-01-20T12:14:48.305Z,99883.41
2023-01-20T12:19:55.299Z,99846.88
2023-01-20T12:25:13.195Z,99864.06
2023-01-20T12:30:20.843Z,99887.63
2023-01-20T12:35:22.917Z,99867.91
2023-01-20T12:40:27.123Z,99880.56
2023-01-20T12:45:31.789Z,99867.06
2023-01-20T12:50:33.339Z,99883.34
2023-01-20T12:55:38.849Z,99877.16
2023-01-20T13:00:51.561Z,99886.00
2023-01-20T13:06:01.323Z,99872.31
2023-01-20T13:11:07.259Z,99863.72
2023-01-20T13:16:10.531Z,99850.91
2023-01-20T13:21:10.774Z,99861.81
2023-01-20T13:26:10.261Z,99855.09
2023-01-20T13:31:23.158Z,99859.16
2023-01-20T13:36:22.129Z,99852.41
2023-01-20T13:41:38.361Z,99844.13
2023-01-20T13:46:45.325Z,99853.72
2023-01-20T13:51:44.307Z,99885.59
2023-01-20T13:56:42.198Z,99889.16
2023-01-20T14:01:40.184Z,99908.50
2023-01-20T14:06:45.828Z,99902.22
2023-01-20T14:11:50.218Z,99896.56
2023-01-20T14:16:48.747Z,99888.00
2023-01-20T14:21:53.167Z,99883.22
2023-01-20T14:26:51.115Z,99884.44
2023-01-20T14:31:54.216Z,99912.00
2023-01-20T14:36:54.000Z,99911.25
2023-01-20T14:41:52.837Z,99919.28
2023-01-20T14:46:57.354Z,99900.59
2023-01-20T14:51:56.698Z,99919.53
2023-01-20T14:56:54.561Z,99940.00
2023-01-20T15:01:53.741Z,99926.13
2023-01-20T15:06:58.078Z,99908.13
2023-01-20T15:12:10.813Z,99929.28
2023-01-20T15:17:09.987Z,99920.19
2023-01-20T15:22:28.682Z,99919.16
2023-01-20T15:27:33.451Z,99920.06
2023-01-20T15:32:31.502Z,99929.50
2023-01-20T15:37:29.376Z,99937.56
2023-01-20T15:42:27.207Z,99930.47
2023-01-20T15:47:31.024Z,99929.47
2023-01-20T15:52:29.377Z,99907.72
2023-01-20T15:57:27.313Z,99910.88
2023-01-20T16:02:25.480Z,99909.75
2023-01-20T16:07:25.392Z,99919.25
2023-01-20T16:12:23.746Z,99944.78
2023-01-20T16:17:23.178Z,99963.81
2023-01-20T16:22:21.026Z,99972.03
2023-01-20T16:27:20.874Z,99982.47
2023-01-20T16:32:22.132Z,99993.22
2023-01-20T16:37:20.367Z,99997.16
2023-01-20T16:42:19.450Z,100009.31
2023-01-20T16:47:18.732Z,99994.13
2023-01-20T16:52:16.620Z,100013.16
2023-01-20T16:57:14.562Z,100026.97
2023-01-20T17:02:12.500Z,100020.59
2023-01-20T17:07:11.849Z,100025.06
2023-01-20T17:12:09.855Z,100022.75
2023-01-20T17:17:07.719Z,100024.38
2023-01-20T17:22:05.821Z,100027.13
2023-01-20T17:27:05.079Z,100066.03
2023-01-20T17:32:04.022Z,100121.16
2023-01-20T17:37:02.393Z,100147.53
2023-01-20T17:42:00.257Z,100166.78
2023-01-20T17:46:59.519Z,100227.38
2023-01-20T17:51:58.874Z,100222.59
2023-01-20T17:56:59.448Z,100230.56
2023-01-20T18:01:57.293Z,100252.50
2023-01-20T18:07:20.741Z,100267.59
2023-01-20T18:12:18.658Z,100282.28
2023-01-20T18:17:17.315Z,100283.16
2023-01-20T18:22:19.037Z,100306.88
2023-01-20T18:27:18.972Z,100338.84
2023-01-20T18:32:19.181Z,100361.94
2023-01-20T18:37:18.787Z,100366.84
2023-01-20T18:42:20.548Z,100407.03
2023-01-20T18:47:18.629Z,100438.75
2023-01-20T18:52:20.533Z,100444.25
2023-01-20T18:57:18.400Z,100455.06
2023-01-20T19:02:16.245Z,100447.44
2023-01-20T19:07:19.187Z,100470.41
2023-01-20T19:12:18.754Z,100473.53
2023-01-20T19:17:17.522Z,100490.97
2023-01-20T19:22:15.991Z,100481.84
2023-01-20T19:27:15.499Z,100489.72
2023-01-20T19:32:14.801Z,100514.09
2023-01-20T19:37:12.713Z,100526.34
2023-01-20T19:42:10.551Z,100540.47
2023-01-20T19:47:09.269Z,100542.06
2023-01-20T19:52:08.672Z,100557.44
2023-01-20T19:57:06.744Z,100532.97
2023-01-20T20:02:06.305Z,100533.78
2023-01-20T20:07:22.780Z,100530.91
2023-01-20T20:12:21.045Z,100536.00
2023-01-20T20:17:18.974Z,100547.09
2023-01-20T20:22:16.859Z,100565.84
2023-01-20T20:27:16.142Z,100578.84
2023-01-20T20:32:14.016Z,100580.31
2023-01-20T20:37:11.883Z,100596.22
2023-01-20T20:42:09.744Z,100609.25
2023-01-20T20:47:09.012Z,100621.50
2023-01-20T20:52:07.014Z,100633.63
2023-01-20T20:57:04.906Z,100638.84
2023-01-20T21:02:02.801Z,100649.22
2023-01-20T21:07:02.242Z,100650.00
2023-01-20T21:12:00.048Z,100664.63
2023-01-20T21:16:57.984Z,100670.00
2023-01-20T21:21:55.820Z,100678.66
2023-01-20T21:26:54.990Z,100687.66
2023-01-20T21:31:53.819Z,100694.38
2023-01-20T21:36:51.731Z,100709.13
2023-01-20T21:41:49.593Z,100716.13
2023-01-20T21:46:49.631Z,100727.16
2023-01-20T21:52:04.730Z,100740.19
2023-01-20T21:57:02.943Z,100745.34
2023-01-20T22:02:02.228Z,100741.00
2023-01-20T22:07:00.232Z,100731.69
2023-01-20T22:11:58.105Z,100729.47
2023-01-20T22:16:55.947Z,100736.63
2023-01-20T22:21:56.868Z,100753.00
2023-01-20T22:26:54.848Z,100766.91
2023-01-20T22:31:53.770Z,100763.53
2023-01-20T22:36:51.616Z,100766.34
2023-01-20T22:41:50.787Z,100769.03
2023-01-20T22:46:48.583Z,100787.28
2023-01-20T22:51:46.399Z,100783.47
2023-01-20T22:56:44.202Z,100777.53
2023-01-20T23:01:43.447Z,100800.03
2023-01-20T23:06:41.258Z,100809.25
2023-01-20T23:11:40.459Z,100812.81
2023-01-20T23:16:38.336Z,100827.63
2023-01-20T23:21:37.520Z,100837.81
2023-01-20T23:26:35.337Z,100830.88
2023-01-20T23:31:35.337Z,100824.75
2023-01-20T23:36:33.332Z,100830.78
2023-01-20T23:41:32.522Z,100843.00
2023-01-20T23:46:30.462Z,100823.88
2023-01-20T23:51:28.334Z,100839.53
2023-01-20T23:56:26.420Z,100849.22
